Time;durP1;ratioP1;P1;durP2;ratioP2;P2;SDS_P1;SDS_P2;PMS_P1;PMS_P2;Temp;Humidity;BMP_temperature;BMP_pressure;BME280_temperature;BME280_humidity;BME280_pressure;Samples;Min_cycle;Max_cycle;Signal;HPM_P1;HPM_P2
2023/08/26 00:02:24;;;;;;;40.53;22.08;;;17.80;100.00;;;;;;4927748;29;20769;-80
2023/08/26 00:04:52;;;;;;;43.20;22.30;;;17.80;100.00;;;;;;4943303;29;20059;-80
2023/08/26 00:07:18;;;;;;;43.08;22.27;;;17.70;100.00;;;;;;4929955;29;20082;-80
2023/08/26 00:09:45;;;;;;;36.55;20.02;;;17.70;100.00;;;;;;4929037;29;20057;-80
2023/08/26 00:12:12;;;;;;;43.72;20.45;;;17.60;100.00;;;;;;4932004;29;20126;-80
2023/08/26 00:14:40;;;;;;;26.30;16.33;;;17.60;100.00;;;;;;4928321;29;20054;-80
2023/08/26 00:17:09;;;;;;;36.00;17.60;;;17.50;100.00;;;;;;4912660;29;20075;-80
2023/08/26 00:19:36;;;;;;;40.25;20.27;;;17.50;100.00;;;;;;4927488;29;20184;-80
2023/08/26 00:22:05;;;;;;;39.95;20.90;;;17.50;100.00;;;;;;4928574;29;20051;-80
2023/08/26 00:24:32;;;;;;;46.95;23.02;;;17.60;100.00;;;;;;4936294;29;20549;-80
2023/08/26 00:26:59;;;;;;;46.08;22.45;;;17.70;100.00;;;;;;4932566;29;20055;-80
2023/08/26 00:29:26;;;;;;;46.25;23.40;;;17.70;100.00;;;;;;4925780;29;20508;-80
2023/08/26 00:31:53;;;;;;;44.30;23.90;;;17.80;100.00;;;;;;4928895;29;20067;-80
2023/08/26 00:34:20;;;;;;;51.50;24.73;;;17.90;100.00;;;;;;4931425;29;20047;-80
2023/08/26 00:36:47;;;;;;;52.88;24.60;;;17.90;100.00;;;;;;4924061;29;20122;-79
2023/08/26 00:39:14;;;;;;;50.65;24.17;;;17.90;100.00;;;;;;4925402;29;20539;-80
2023/08/26 00:41:40;;;;;;;58.10;24.83;;;17.90;100.00;;;;;;4931147;28;20709;-80
2023/08/26 00:44:07;;;;;;;56.35;26.88;;;17.90;100.00;;;;;;4932649;29;20139;-79
2023/08/26 00:46:35;;;;;;;60.30;27.83;;;17.90;100.00;;;;;;4930685;29;20497;-79
2023/08/26 00:49:02;;;;;;;59.17;25.80;;;17.90;100.00;;;;;;4917948;29;20058;-80
2023/08/26 00:51:29;;;;;;;59.65;26.85;;;17.90;100.00;;;;;;4934323;29;20058;-80
2023/08/26 00:53:56;;;;;;;59.20;26.25;;;17.90;100.00;;;;;;4936653;29;20047;-80
2023/08/26 00:56:23;;;;;;;62.20;26.67;;;17.90;100.00;;;;;;4939524;29;20049;-80
2023/08/26 00:58:50;;;;;;;63.63;27.80;;;17.90;100.00;;;;;;4940039;29;20556;-80
2023/08/26 01:01:18;;;;;;;66.28;27.50;;;17.90;100.00;;;;;;4930012;29;20059;-80
2023/08/26 01:03:45;;;;;;;74.85;29.60;;;17.90;100.00;;;;;;4936698;29;20154;-80
2023/08/26 01:06:12;;;;;;;65.90;27.42;;;17.90;100.00;;;;;;4932716;29;20059;-80
2023/08/26 01:08:39;;;;;;;59.03;27.17;;;17.90;100.00;;;;;;4935135;29;20453;-79
2023/08/26 01:11:09;;;;;;;65.00;27.80;;;17.90;100.00;;;;;;4931941;29;20051;-80
2023/08/26 01:14:08;;;;;;;65.85;28.00;;;17.90;100.00;;;;;;4936575;29;20054;-80
2023/08/26 01:16:37;;;;;;;72.20;27.42;;;17.90;100.00;;;;;;4906716;29;20134;-79
2023/08/26 01:19:15;;;;;;;61.75;28.30;;;17.90;100.00;;;;;;4936189;29;20052;-79
2023/08/26 01:21:44;;;;;;;69.78;30.58;;;17.90;100.00;;;;;;4928851;29;20125;-80
2023/08/26 01:24:12;;;;;;;71.97;28.95;;;17.90;100.00;;;;;;4930240;29;20154;-80
2023/08/26 01:26:38;;;;;;;65.90;28.63;;;18.00;100.00;;;;;;4925595;29;20052;-80
2023/08/26 01:29:05;;;;;;;70.47;30.25;;;18.00;100.00;;;;;;4929129;29;20135;-79
2023/08/26 01:31:32;;;;;;;66.70;29.33;;;18.00;100.00;;;;;;4927366;29;20508;-80
2023/08/26 01:34:22;;;;;;;70.57;29.02;;;18.00;100.00;;;;;;4924881;29;20059;-79
2023/08/26 01:36:52;;;;;;;60.75;28.45;;;18.10;100.00;;;;;;4944717;28;20766;-80
2023/08/26 01:39:20;;;;;;;71.90;28.30;;;18.10;100.00;;;;;;4931831;29;20080;-79
2023/08/26 01:41:50;;;;;;;57.58;26.80;;;18.10;100.00;;;;;;4933882;29;20795;-78
2023/08/26 01:44:22;;;;;;;60.03;25.08;;;18.00;100.00;;;;;;4946484;28;20110;-79
2023/08/26 01:46:48;;;;;;;58.30;25.35;;;18.00;100.00;;;;;;4933167;29;20057;-79
2023/08/26 01:49:15;;;;;;;55.65;26.15;;;18.00;100.00;;;;;;4930538;29;20055;-80
2023/08/26 01:51:43;;;;;;;58.22;25.83;;;18.00;100.00;;;;;;4930742;29;20158;-80
2023/08/26 01:54:11;;;;;;;60.10;25.50;;;17.90;100.00;;;;;;4931155;28;20707;-80
2023/08/26 01:56:38;;;;;;;65.40;27.10;;;17.90;100.00;;;;;;4958566;28;20451;-80
2023/08/26 01:59:04;;;;;;;54.95;24.65;;;17.90;100.00;;;;;;4959056;28;20047;-80
2023/08/26 02:01:33;;;;;;;53.05;25.08;;;17.90;100.00;;;;;;4958722;28;20070;-80
2023/08/26 02:04:01;;;;;;;55.45;25.95;;;17.90;100.00;;;;;;4957653;28;20066;-80
2023/08/26 02:06:28;;;;;;;55.22;24.80;;;17.90;100.00;;;;;;4955184;28;20050;-71
2023/08/26 02:08:55;;;;;;;58.90;25.70;;;17.90;100.00;;;;;;4955688;28;20047;-71
2023/08/26 02:11:22;;;;;;;51.97;23.58;;;17.90;100.00;;;;;;4950070;28;20058;-72
2023/08/26 02:13:49;;;;;;;59.28;24.90;;;17.90;100.00;;;;;;4959483;28;20051;-71
2023/08/26 02:16:15;;;;;;;57.25;23.88;;;17.90;100.00;;;;;;4957883;28;20058;-71
2023/08/26 02:18:42;;;;;;;53.67;24.35;;;18.00;100.00;;;;;;4948791;28;20059;-71
2023/08/26 02:21:11;;;;;;;52.83;23.45;;;18.00;100.00;;;;;;4944647;28;20046;-71
2023/08/26 02:23:38;;;;;;;55.72;22.50;;;18.00;100.00;;;;;;4952694;28;20193;-71
2023/08/26 02:26:05;;;;;;;54.95;24.05;;;18.00;100.00;;;;;;4953376;28;20824;-71
2023/08/26 02:28:31;;;;;;;50.88;23.52;;;18.00;100.00;;;;;;4946073;28;20053;-71
2023/08/26 02:31:01;;;;;;;51.13;22.52;;;18.00;100.00;;;;;;4950480;28;20865;-71
2023/08/26 02:33:28;;;;;;;49.83;23.45;;;18.00;100.00;;;;;;4967242;28;20051;-71
2023/08/26 02:35:55;;;;;;;53.45;24.05;;;18.00;100.00;;;;;;4951478;28;20617;-71
2023/08/26 02:38:22;;;;;;;52.55;23.88;;;18.00;100.00;;;;;;4955317;28;20078;-71
2023/08/26 02:40:53;;;;;;;52.85;24.55;;;18.00;100.00;;;;;;4948943;28;20054;-71
2023/08/26 02:43:21;;;;;;;54.35;25.00;;;18.00;100.00;;;;;;4950002;28;20051;-71
2023/08/26 02:45:55;;;;;;;53.83;24.35;;;18.00;100.00;;;;;;4946474;28;20558;-72
2023/08/26 02:48:23;;;;;;;63.15;26.52;;;18.00;100.00;;;;;;4947185;28;20051;-71
2023/08/26 02:51:00;;;;;;;57.45;24.25;;;18.00;100.00;;;;;;4950573;28;20067;-72
2023/08/26 02:53:29;;;;;;;54.83;24.17;;;18.00;100.00;;;;;;4943933;28;20086;-71
2023/08/26 02:55:56;;;;;;;54.67;24.73;;;18.00;100.00;;;;;;4943897;28;21539;-71
2023/08/26 02:58:23;;;;;;;58.17;25.60;;;17.90;100.00;;;;;;4947454;28;20274;-71
2023/08/26 03:00:50;;;;;;;62.50;24.63;;;17.90;100.00;;;;;;4936319;29;20671;-71
2023/08/26 03:03:17;;;;;;;56.83;23.65;;;17.90;100.00;;;;;;4944950;28;20071;-71
2023/08/26 03:05:45;;;;;;;53.83;24.27;;;17.90;100.00;;;;;;4965962;28;20147;-71
2023/08/26 03:08:12;;;;;;;51.05;24.80;;;17.90;100.00;;;;;;4942495;28;20079;-71
2023/08/26 03:10:39;;;;;;;54.85;24.25;;;17.80;100.00;;;;;;4950737;28;20544;-71
2023/08/26 03:13:10;;;;;;;58.67;24.15;;;17.80;100.00;;;;;;4952148;28;20086;-71
2023/08/26 03:15:37;;;;;;;50.90;23.40;;;17.80;100.00;;;;;;4943495;28;20047;-71
2023/08/26 03:18:04;;;;;;;53.28;25.02;;;17.80;100.00;;;;;;4944379;28;20059;-71
2023/08/26 03:20:32;;;;;;;52.95;23.95;;;17.70;100.00;;;;;;4953432;28;20733;-71
2023/08/26 03:22:58;;;;;;;54.90;24.73;;;17.70;100.00;;;;;;4945837;28;20058;-71
2023/08/26 03:25:25;;;;;;;61.28;25.63;;;17.70;100.00;;;;;;4942519;28;20047;-71
2023/08/26 03:27:52;;;;;;;52.95;25.25;;;17.70;100.00;;;;;;4943242;28;20079;-71
2023/08/26 03:30:19;;;;;;;59.03;25.33;;;17.70;100.00;;;;;;4948520;28;20047;-71
2023/08/26 03:32:46;;;;;;;57.17;25.85;;;17.70;100.00;;;;;;4940711;28;20587;-71
2023/08/26 03:35:13;;;;;;;54.83;23.40;;;17.70;100.00;;;;;;4944627;28;20121;-71
2023/08/26 03:37:40;;;;;;;60.78;25.25;;;17.60;100.00;;;;;;4943761;28;20047;-71
2023/08/26 03:40:09;;;;;;;57.67;25.58;;;17.60;100.00;;;;;;4942623;28;20130;-71
2023/08/26 03:42:51;;;;;;;53.60;25.38;;;17.60;100.00;;;;;;4947537;28;20054;-71
2023/08/26 03:45:18;;;;;;;53.67;25.05;;;17.50;100.00;;;;;;4926815;29;20472;-71
2023/08/26 03:47:45;;;;;;;61.75;26.10;;;17.50;100.00;;;;;;4943296;28;20043;-71
2023/08/26 03:50:12;;;;;;;55.63;24.83;;;17.50;100.00;;;;;;4943992;28;20086;-71
2023/08/26 03:52:39;;;;;;;55.75;23.58;;;17.50;100.00;;;;;;4944942;28;20134;-71
2023/08/26 03:55:07;;;;;;;46.88;21.58;;;17.50;100.00;;;;;;4943538;28;20134;-71
2023/08/26 03:57:34;;;;;;;49.65;23.23;;;17.40;100.00;;;;;;4946950;28;20415;-80
2023/08/26 04:00:01;;;;;;;47.28;22.27;;;17.40;100.00;;;;;;4948069;28;20055;-79
2023/08/26 04:02:27;;;;;;;52.33;23.45;;;17.40;100.00;;;;;;4943497;28;20051;-80
2023/08/26 04:04:54;;;;;;;62.80;22.73;;;17.40;100.00;;;;;;4945723;28;20883;-80
2023/08/26 04:07:22;;;;;;;58.67;21.67;;;17.40;100.00;;;;;;4951163;28;20047;-81
2023/08/26 04:09:50;;;;;;;52.50;23.83;;;17.40;100.00;;;;;;4951665;28;20042;-80
2023/08/26 04:12:17;;;;;;;50.30;23.13;;;17.30;100.00;;;;;;4952691;28;20051;-80
2023/08/26 04:14:44;;;;;;;49.03;22.50;;;17.40;100.00;;;;;;4945036;28;20833;-79
2023/08/26 04:17:12;;;;;;;54.05;22.67;;;17.40;100.00;;;;;;4941361;28;20075;-79
2023/08/26 04:19:38;;;;;;;57.67;24.48;;;17.30;100.00;;;;;;4949243;28;20051;-79
2023/08/26 04:22:07;;;;;;;56.50;24.33;;;17.30;100.00;;;;;;4950661;28;20529;-80
2023/08/26 04:24:34;;;;;;;53.00;23.15;;;17.30;100.00;;;;;;4947260;28;20051;-80
2023/08/26 04:27:01;;;;;;;49.63;22.25;;;17.20;100.00;;;;;;4950484;28;20058;-80
2023/08/26 04:29:28;;;;;;;59.72;22.92;;;17.20;100.00;;;;;;4965638;28;20050;-80
2023/08/26 04:31:55;;;;;;;54.78;22.92;;;17.20;100.00;;;;;;4952953;28;20070;-80
2023/08/26 04:34:22;;;;;;;61.40;23.42;;;17.20;100.00;;;;;;4959000;28;20106;-80
2023/08/26 04:36:49;;;;;;;52.30;22.73;;;17.20;100.00;;;;;;4951580;28;20102;-80
2023/08/26 04:39:19;;;;;;;52.92;22.35;;;17.20;100.00;;;;;;4953273;28;20075;-80
2023/08/26 04:41:46;;;;;;;57.10;24.10;;;17.20;100.00;;;;;;4954241;28;20078;-79
2023/08/26 04:44:17;;;;;;;56.50;23.27;;;17.20;100.00;;;;;;4952554;28;20051;-80
2023/08/26 04:46:44;;;;;;;52.63;22.88;;;17.20;100.00;;;;;;4951758;28;20046;-79
2023/08/26 04:49:11;;;;;;;57.47;22.73;;;17.20;100.00;;;;;;4953238;28;20069;-79
2023/08/26 04:51:39;;;;;;;51.28;23.48;;;17.20;100.00;;;;;;4952073;28;20219;-79
2023/08/26 04:54:06;;;;;;;52.47;22.45;;;17.20;100.00;;;;;;4949775;28;20051;-80
2023/08/26 04:56:32;;;;;;;51.55;22.98;;;17.20;100.00;;;;;;4950348;28;20075;-79
2023/08/26 04:58:59;;;;;;;58.88;24.08;;;17.20;100.00;;;;;;4978394;23;20112;-71
2023/08/26 05:01:27;;;;;;;52.65;22.38;;;17.20;100.00;;;;;;5010865;28;20089;-71
2023/08/26 05:03:54;;;;;;;59.70;23.90;;;17.20;100.00;;;;;;5009508;28;20201;-71
2023/08/26 05:06:21;;;;;;;57.50;24.30;;;17.30;100.00;;;;;;5005107;28;20053;-71
2023/08/26 05:08:48;;;;;;;47.47;22.20;;;17.40;100.00;;;;;;5004966;28;20060;-71
2023/08/26 05:11:15;;;;;;;54.72;23.83;;;17.50;100.00;;;;;;5004165;28;20173;-72
2023/08/26 05:13:42;;;;;;;62.30;24.88;;;17.50;100.00;;;;;;5002742;28;20743;-71
2023/08/26 05:16:08;;;;;;;55.95;24.20;;;17.70;100.00;;;;;;5007530;28;20045;-71
2023/08/26 05:18:35;;;;;;;55.83;25.45;;;17.80;100.00;;;;;;5007890;28;20503;-71
2023/08/26 05:21:02;;;;;;;55.42;24.98;;;17.90;100.00;;;;;;5004425;28;20085;-71
2023/08/26 05:23:29;;;;;;;56.97;24.33;;;18.00;100.00;;;;;;5010836;28;20120;-71
2023/08/26 05:25:56;;;;;;;56.67;23.95;;;18.10;100.00;;;;;;5006379;28;20568;-71
2023/08/26 05:28:23;;;;;;;56.17;23.90;;;18.20;100.00;;;;;;5005682;28;20053;-71
2023/08/26 05:30:50;;;;;;;53.35;24.48;;;18.30;100.00;;;;;;5009245;28;20041;-70
2023/08/26 05:33:16;;;;;;;50.60;22.85;;;18.40;100.00;;;;;;5008711;28;20057;-71
2023/08/26 05:35:43;;;;;;;54.05;24.02;;;18.50;100.00;;;;;;5005676;28;20139;-71
2023/08/26 05:38:10;;;;;;;50.15;23.38;;;18.50;100.00;;;;;;5007658;28;20120;-70
2023/08/26 05:40:37;;;;;;;49.00;23.77;;;18.60;100.00;;;;;;5009258;28;20656;-71
2023/08/26 05:43:04;;;;;;;52.50;23.73;;;18.60;100.00;;;;;;5003843;28;20726;-71
2023/08/26 05:45:31;;;;;;;49.45;23.50;;;18.70;100.00;;;;;;5002876;28;20761;-71
2023/08/26 05:47:58;;;;;;;59.15;24.23;;;18.70;100.00;;;;;;5008710;28;20140;-71
2023/08/26 05:50:25;;;;;;;56.75;25.38;;;18.70;100.00;;;;;;5007136;28;20075;-71
2023/08/26 05:52:52;;;;;;;63.60;26.35;;;18.70;100.00;;;;;;5009875;28;20049;-71
2023/08/26 05:55:19;;;;;;;59.92;25.20;;;18.80;100.00;;;;;;5004958;28;20056;-71
2023/08/26 05:57:46;;;;;;;65.10;25.73;;;18.70;100.00;;;;;;5006223;28;20082;-71
2023/08/26 06:00:28;;;;;;;68.55;27.40;;;18.80;100.00;;;;;;4976127;28;20049;-71
2023/08/26 06:02:56;;;;;;;69.45;28.15;;;18.70;100.00;;;;;;5003299;28;20161;-71
2023/08/26 06:05:24;;;;;;;66.70;27.92;;;18.80;100.00;;;;;;5004295;28;20046;-71
2023/08/26 06:07:51;;;;;;;68.78;28.52;;;18.80;100.00;;;;;;5010985;28;20070;-71
2023/08/26 06:10:19;;;;;;;73.03;27.50;;;18.80;100.00;;;;;;5016146;28;20137;-71
2023/08/26 06:12:46;;;;;;;77.82;28.38;;;18.80;100.00;;;;;;5009117;28;20653;-71
2023/08/26 06:15:13;;;;;;;70.25;28.58;;;18.90;100.00;;;;;;5001563;28;20136;-74
2023/08/26 06:17:41;;;;;;;68.72;27.00;;;19.00;100.00;;;;;;5011785;28;20069;-71
2023/08/26 06:20:08;;;;;;;69.32;28.63;;;19.20;100.00;;;;;;5007675;28;20050;-71
2023/08/26 06:22:35;;;;;;;73.38;28.88;;;19.30;100.00;;;;;;5013940;28;20045;-71
2023/08/26 06:25:02;;;;;;;60.78;27.05;;;19.40;100.00;;;;;;5010230;28;20062;-71
2023/08/26 06:27:29;;;;;;;59.55;26.90;;;19.50;100.00;;;;;;5010246;28;20690;-72
2023/08/26 06:29:58;;;;;;;60.88;27.55;;;19.60;100.00;;;;;;5005537;28;20105;-72
2023/08/26 06:32:27;;;;;;;61.97;26.35;;;19.60;100.00;;;;;;5007170;28;20080;-72
2023/08/26 06:34:57;;;;;;;60.95;27.55;;;19.60;100.00;;;;;;5006292;28;20108;-73
2023/08/26 06:37:28;;;;;;;60.22;27.50;;;19.70;100.00;;;;;;5000151;28;20049;-71
2023/08/26 06:40:22;;;;;;;54.40;26.17;;;19.80;100.00;;;;;;5004734;28;20124;-70
2023/08/26 06:42:49;;;;;;;56.13;26.75;;;20.00;100.00;;;;;;5002428;28;20614;-74
2023/08/26 06:45:16;;;;;;;54.30;26.17;;;20.10;100.00;;;;;;4995811;28;20410;-75
2023/08/26 06:47:43;;;;;;;53.10;25.77;;;20.10;100.00;;;;;;5003266;28;20053;-75
2023/08/26 06:50:10;;;;;;;52.95;25.73;;;20.30;100.00;;;;;;5010095;28;20053;-75
2023/08/26 06:52:37;;;;;;;58.05;27.48;;;20.60;99.60;;;;;;5006741;28;20065;-74
2023/08/26 06:55:04;;;;;;;50.03;26.20;;;20.80;98.70;;;;;;5002124;28;20137;-76
2023/08/26 06:57:31;;;;;;;54.15;25.83;;;20.70;97.50;;;;;;5015763;28;20077;-78
2023/08/26 06:59:59;;;;;;;51.83;25.48;;;20.60;96.90;;;;;;5004577;28;20081;-73
2023/08/26 07:02:26;;;;;;;62.55;26.33;;;20.60;98.60;;;;;;5003193;28;20522;-75
2023/08/26 07:04:53;;;;;;;54.83;26.67;;;20.50;97.20;;;;;;5013630;28;20048;-74
2023/08/26 07:07:20;;;;;;;46.80;25.95;;;20.50;97.10;;;;;;5007794;28;20054;-75
2023/08/26 07:09:47;;;;;;;50.72;26.20;;;20.40;97.00;;;;;;5008396;28;20050;-75
2023/08/26 07:12:14;;;;;;;50.17;26.50;;;20.30;96.60;;;;;;5001921;28;20050;-74
2023/08/26 07:14:41;;;;;;;48.90;25.45;;;20.20;97.70;;;;;;5009209;28;20056;-74
2023/08/26 07:17:08;;;;;;;50.30;25.67;;;20.20;98.50;;;;;;5003005;28;20050;-74
2023/08/26 07:19:35;;;;;;;55.03;26.02;;;20.10;98.30;;;;;;5003210;28;20103;-74
2023/08/26 07:22:04;;;;;;;44.15;24.40;;;20.20;98.80;;;;;;5007335;28;20056;-74
2023/08/26 07:24:34;;;;;;;49.65;26.23;;;20.30;98.50;;;;;;5011887;28;20101;-74
2023/08/26 07:27:01;;;;;;;50.67;25.05;;;20.30;97.70;;;;;;5015747;28;20053;-74
2023/08/26 07:29:31;;;;;;;55.40;26.50;;;20.30;97.10;;;;;;5004396;28;20077;-74
2023/08/26 07:31:58;;;;;;;50.10;25.58;;;20.30;97.60;;;;;;5006650;28;20498;-74
2023/08/26 07:34:25;;;;;;;49.45;23.05;;;20.40;98.20;;;;;;5007033;28;20108;-74
2023/08/26 07:36:52;;;;;;;44.70;24.65;;;20.70;98.40;;;;;;5007242;28;20054;-73
2023/08/26 07:39:21;;;;;;;48.85;22.88;;;20.80;96.30;;;;;;5011168;28;20477;-70
2023/08/26 07:41:48;;;;;;;60.20;27.42;;;20.90;96.60;;;;;;5015467;28;20077;-71
2023/08/26 07:44:14;;;;;;;52.92;24.00;;;21.10;95.90;;;;;;5005061;28;20049;-71
2023/08/26 07:46:41;;;;;;;52.10;23.85;;;21.30;96.00;;;;;;5008458;28;20076;-70
2023/08/26 07:49:11;;;;;;;45.13;21.45;;;21.50;94.40;;;;;;5005468;28;20057;-70
2023/08/26 07:51:38;;;;;;;39.00;20.42;;;21.60;92.90;;;;;;5012041;28;20058;-71
2023/08/26 07:54:05;;;;;;;38.50;20.73;;;21.40;91.50;;;;;;5009555;28;20158;-70
2023/08/26 07:56:32;;;;;;;38.08;20.88;;;21.40;92.30;;;;;;5001134;28;20058;-70
2023/08/26 07:58:59;;;;;;;40.17;20.38;;;21.30;91.90;;;;;;5007263;28;20115;-70
2023/08/26 08:01:26;;;;;;;35.70;20.17;;;21.40;92.50;;;;;;5014534;28;20808;-70
2023/08/26 08:03:52;;;;;;;37.45;19.73;;;21.40;92.00;;;;;;5006635;28;20049;-70
2023/08/26 08:06:21;;;;;;;38.05;18.88;;;21.70;93.10;;;;;;5003654;28;20050;-70
2023/08/26 08:08:51;;;;;;;35.25;18.92;;;21.90;91.80;;;;;;5004365;28;20057;-70
2023/08/26 08:11:24;;;;;;;33.20;19.38;;;22.30;89.30;;;;;;5001751;28;20787;-71
2023/08/26 08:13:51;;;;;;;35.05;18.40;;;22.50;87.70;;;;;;5012659;28;20131;-70
2023/08/26 08:16:18;;;;;;;29.23;16.75;;;22.50;88.40;;;;;;5005748;28;20046;-71
2023/08/26 08:18:45;;;;;;;30.85;17.35;;;22.90;88.50;;;;;;5022130;28;20123;-69
2023/08/26 08:21:18;;;;;;;29.48;17.13;;;23.00;86.00;;;;;;5007693;28;20471;-68
2023/08/26 08:23:47;;;;;;;25.95;16.05;;;23.50;85.80;;;;;;5001775;28;20261;-68
2023/08/26 08:26:16;;;;;;;54.97;18.35;;;23.70;84.80;;;;;;5005466;28;20070;-71
2023/08/26 08:28:43;;;;;;;29.52;16.30;;;23.70;82.30;;;;;;5010981;28;20056;-70
2023/08/26 08:31:09;;;;;;;24.58;14.43;;;23.70;82.40;;;;;;5010518;28;20088;-70
2023/08/26 08:33:37;;;;;;;28.00;15.48;;;23.60;84.10;;;;;;5002032;28;20058;-70
2023/08/26 08:36:04;;;;;;;22.95;14.38;;;24.30;82.50;;;;;;5011640;28;20708;-70
2023/08/26 08:38:31;;;;;;;20.20;12.50;;;25.00;80.90;;;;;;5004411;28;20495;-70
2023/08/26 08:40:58;;;;;;;21.60;13.93;;;25.60;79.00;;;;;;5014118;28;20053;-70
2023/08/26 08:43:29;;;;;;;21.17;12.27;;;26.10;75.30;;;;;;5003776;28;20046;-70
2023/08/26 08:45:57;;;;;;;19.65;11.88;;;26.50;75.90;;;;;;5005450;28;20576;-70
2023/08/26 08:48:24;;;;;;;21.13;12.88;;;26.90;70.60;;;;;;5002201;28;20069;-70
2023/08/26 08:50:53;;;;;;;20.23;12.57;;;26.70;70.90;;;;;;5012444;23;20144;-73
2023/08/26 08:53:27;;;;;;;22.30;11.70;;;26.90;71.20;;;;;;4998964;28;20038;-74
2023/08/26 08:55:54;;;;;;;18.05;11.50;;;26.50;72.00;;;;;;4984349;28;20133;-72
2023/08/26 08:58:22;;;;;;;20.00;11.70;;;26.80;67.50;;;;;;5001570;28;20701;-73
2023/08/26 09:00:51;;;;;;;43.08;13.00;;;26.50;69.30;;;;;;4981044;28;20138;-72
2023/08/26 09:03:19;;;;;;;21.63;11.77;;;26.30;67.20;;;;;;5003896;28;20045;-72
2023/08/26 09:05:46;;;;;;;21.17;10.95;;;25.80;69.90;;;;;;5003331;28;20045;-72
2023/08/26 09:08:16;;;;;;;16.42;11.13;;;25.70;69.90;;;;;;4987646;28;20153;-73
2023/08/26 09:10:46;;;;;;;25.27;10.50;;;24.70;70.00;;;;;;5004526;28;20632;-71
2023/08/26 09:13:12;;;;;;;20.67;10.13;;;25.10;73.20;;;;;;5005311;28;20058;-73
2023/08/26 09:15:39;;;;;;;15.02;10.02;;;26.20;73.60;;;;;;5005232;28;20053;-74
2023/08/26 09:18:12;;;;;;;15.80;10.07;;;26.90;69.60;;;;;;5006118;28;20045;-74
2023/08/26 09:20:39;;;;;;;13.95;9.43;;;26.70;68.10;;;;;;4993054;28;20057;-72
2023/08/26 09:23:08;;;;;;;13.05;8.48;;;26.50;68.70;;;;;;4990205;28;20068;-72
2023/08/26 09:25:35;;;;;;;14.85;9.15;;;26.80;67.00;;;;;;5006551;28;20077;-72
2023/08/26 09:28:05;;;;;;;14.88;9.25;;;26.90;67.30;;;;;;5007129;28;20104;-73
2023/08/26 09:30:32;;;;;;;14.93;8.82;;;27.00;67.90;;;;;;4987408;28;20163;-73
2023/08/26 09:32:59;;;;;;;14.68;9.23;;;27.10;68.00;;;;;;5006781;28;20057;-72
2023/08/26 09:35:26;;;;;;;12.65;9.07;;;26.60;66.60;;;;;;5003938;28;20077;-71
2023/08/26 09:40:39;;;;;;;16.40;10.50;;;26.70;64.70;;;;;;4995046;28;20073;-73
2023/08/26 09:43:08;;;;;;;14.45;8.60;;;26.40;66.90;;;;;;4983860;28;20578;-73
2023/08/26 09:45:38;;;;;;;15.95;8.45;;;26.20;67.80;;;;;;4998738;28;20494;-73
2023/08/26 09:48:05;;;;;;;13.10;8.13;;;26.90;63.20;;;;;;4996280;28;20054;-73
2023/08/26 09:50:32;;;;;;;15.10;8.27;;;27.00;66.20;;;;;;4976609;28;20054;-74
2023/08/26 09:52:59;;;;;;;12.25;8.38;;;27.60;62.30;;;;;;4979016;28;20061;-74
2023/08/26 09:55:27;;;;;;;14.88;7.93;;;27.30;63.50;;;;;;4989628;28;20129;-74
2023/08/26 09:57:54;;;;;;;12.07;7.85;;;27.20;65.10;;;;;;4984194;28;20050;-74
2023/08/26 10:00:21;;;;;;;10.85;7.10;;;27.00;65.40;;;;;;4995158;28;20100;-74
2023/08/26 10:02:50;;;;;;;13.10;8.00;;;27.70;61.40;;;;;;4998379;28;20049;-71
2023/08/26 10:05:19;;;;;;;10.82;7.63;;;27.20;62.70;;;;;;4995508;28;20054;-74
2023/08/26 10:07:48;;;;;;;12.20;7.82;;;26.60;67.30;;;;;;4990052;28;20047;-74
2023/08/26 10:10:24;;;;;;;11.93;7.63;;;27.50;62.60;;;;;;4992942;28;20138;-74
2023/08/26 10:12:55;;;;;;;13.00;7.60;;;27.40;64.30;;;;;;4997279;28;20042;-74
2023/08/26 10:15:26;;;;;;;16.63;6.97;;;28.50;63.60;;;;;;4996403;28;20145;-74
2023/08/26 10:17:56;;;;;;;12.40;7.15;;;29.90;63.10;;;;;;4991321;28;20136;-74
2023/08/26 10:20:23;;;;;;;9.02;6.05;;;30.40;57.10;;;;;;4984189;28;20156;-74
2023/08/26 10:22:51;;;;;;;10.35;6.72;;;29.30;57.80;;;;;;4993359;28;20792;-74
2023/08/26 10:25:18;;;;;;;7.88;6.32;;;28.40;61.50;;;;;;4978878;28;20042;-74
2023/08/26 10:27:45;;;;;;;10.77;6.65;;;28.80;59.80;;;;;;4972157;28;20256;-74
2023/08/26 10:30:13;;;;;;;10.63;6.90;;;28.60;58.10;;;;;;4986060;28;20314;-74
2023/08/26 10:32:44;;;;;;;10.70;6.93;;;28.00;58.80;;;;;;4988598;28;20049;-74
2023/08/26 10:35:12;;;;;;;9.10;6.25;;;26.80;61.70;;;;;;4995390;28;20438;-74
2023/08/26 10:37:40;;;;;;;8.90;5.15;;;26.60;62.00;;;;;;4973908;28;20046;-74
2023/08/26 10:40:09;;;;;;;11.43;6.53;;;26.20;64.00;;;;;;4991993;28;20046;-74
2023/08/26 10:42:37;;;;;;;11.00;5.85;;;26.00;62.70;;;;;;4988342;28;20050;-74
2023/08/26 10:45:13;;;;;;;7.30;5.35;;;25.60;63.90;;;;;;4993555;28;20452;-74
2023/08/26 10:47:45;;;;;;;8.50;4.93;;;26.10;64.50;;;;;;4979346;28;20054;-73
2023/08/26 10:50:23;;;;;;;11.30;6.47;;;26.90;63.80;;;;;;4995403;28;20065;-74
2023/08/26 10:52:56;;;;;;;11.68;6.03;;;26.70;63.70;;;;;;4984531;28;20133;-74
2023/08/26 10:55:24;;;;;;;9.68;6.32;;;26.40;62.20;;;;;;4991101;28;20089;-74
2023/08/26 10:58:03;;;;;;;12.48;7.65;;;26.10;62.90;;;;;;4975619;28;20050;-74
2023/08/26 11:00:31;;;;;;;13.95;8.02;;;25.80;64.10;;;;;;4963991;28;20710;-74
2023/08/26 11:02:59;;;;;;;14.32;7.60;;;25.30;65.50;;;;;;4982248;28;20133;-74
2023/08/26 11:05:26;;;;;;;16.77;7.85;;;24.90;67.20;;;;;;4988939;28;20110;-74
2023/08/26 11:07:53;;;;;;;13.45;8.40;;;24.80;68.20;;;;;;4969966;28;20046;-74
2023/08/26 11:10:28;;;;;;;14.30;7.95;;;25.20;69.20;;;;;;5001954;28;20451;-74
2023/08/26 11:12:55;;;;;;;13.00;7.53;;;26.60;66.60;;;;;;4998070;28;20160;-74
2023/08/26 11:15:22;;;;;;;11.68;6.55;;;27.40;62.70;;;;;;4993493;28;20717;-74
2023/08/26 11:17:49;;;;;;;12.48;6.60;;;27.50;60.00;;;;;;4979962;28;20212;-74
2023/08/26 11:20:18;;;;;;;10.68;6.72;;;27.10;59.80;;;;;;4987807;28;20061;-74
2023/08/26 11:22:46;;;;;;;16.35;7.55;;;26.40;60.90;;;;;;4994161;28;20085;-74
2023/08/26 11:25:17;;;;;;;10.95;6.30;;;26.00;60.80;;;;;;4991702;28;20064;-74
2023/08/26 11:27:44;;;;;;;13.55;5.53;;;25.50;62.40;;;;;;4994881;28;20100;-74
2023/08/26 11:30:11;;;;;;;18.00;9.07;;;24.90;64.20;;;;;;4988694;28;20148;-74
2023/08/26 11:32:40;;;;;;;14.57;8.52;;;24.10;72.90;;;;;;4992510;28;20112;-74
2023/08/26 11:35:10;;;;;;;20.58;8.98;;;23.00;76.80;;;;;;4990707;28;20054;-73
2023/08/26 11:37:46;;;;;;;18.33;9.80;;;21.80;76.50;;;;;;4996019;28;20454;-73
2023/08/26 11:40:15;;;;;;;20.33;10.35;;;21.20;81.80;;;;;;4983340;28;20054;-74
2023/08/26 11:42:44;;;;;;;22.30;11.00;;;20.80;84.40;;;;;;4981060;28;20046;-73
2023/08/26 11:45:11;;;;;;;15.45;10.25;;;20.30;87.10;;;;;;4963663;28;20108;-74
2023/08/26 11:47:40;;;;;;;19.42;7.85;;;20.00;88.80;;;;;;4982968;28;20070;-74
2023/08/26 11:50:08;;;;;;;8.48;5.00;;;19.80;88.50;;;;;;4984665;28;20086;-74
2023/08/26 11:52:38;;;;;;;8.05;5.53;;;19.50;90.20;;;;;;4985790;28;20057;-74
2023/08/26 11:55:07;;;;;;;11.60;5.32;;;20.30;92.30;;;;;;4977686;28;20050;-75
2023/08/26 11:57:38;;;;;;;8.25;5.00;;;22.10;89.90;;;;;;4988207;28;20112;-74
2023/08/26 12:00:10;;;;;;;9.20;5.40;;;22.10;80.70;;;;;;4982542;28;20596;-74
2023/08/26 12:02:38;;;;;;;10.75;5.30;;;21.70;81.30;;;;;;4966826;28;20128;-74
2023/08/26 12:05:05;;;;;;;7.97;5.15;;;21.60;82.60;;;;;;4985797;28;20050;-74
2023/08/26 12:07:34;;;;;;;10.23;5.20;;;21.60;81.40;;;;;;4967215;28;20046;-74
2023/08/26 12:10:11;;;;;;;10.20;6.18;;;21.20;83.90;;;;;;4965086;28;20066;-71
2023/08/26 12:12:39;;;;;;;11.10;5.23;;;21.20;82.50;;;;;;4990831;28;20046;-71
2023/08/26 12:15:07;;;;;;;11.27;5.18;;;21.90;85.20;;;;;;4982237;28;20069;-71
2023/08/26 12:17:48;;;;;;;12.77;4.80;;;23.40;79.40;;;;;;4983342;28;20601;-71
2023/08/26 12:20:29;;;;;;;6.75;3.88;;;24.60;72.90;;;;;;4983666;28;20045;-71
2023/08/26 12:22:58;;;;;;;6.90;3.55;;;25.60;72.10;;;;;;4966529;28;20627;-72
2023/08/26 12:25:37;;;;;;;7.38;3.63;;;26.50;66.90;;;;;;4964503;28;20641;-71
2023/08/26 12:28:12;;;;;;;10.43;3.70;;;27.30;62.80;;;;;;4964554;28;20062;-71
2023/08/26 12:30:40;;;;;;;;;;;27.60;62.40;;;;;;4980678;28;20054;-71
2023/08/26 12:33:08;;;;;;;8.10;3.60;;;28.00;61.60;;;;;;4982547;28;19926;-71
2023/08/26 12:35:51;;;;;;;6.65;3.50;;;28.60;60.00;;;;;;4981738;28;20510;-71